createdAt,value
2023-01-19T00:00:08.830Z,84
2023-01-19T00:00:54.788Z,84
2023-01-19T00:01:40.692Z,85
2023-01-19T00:02:26.793Z,85
2023-01-19T00:03:12.742Z,85
2023-01-19T00:03:58.747Z,85
2023-01-19T00:04:44.733Z,85
2023-01-19T00:05:30.889Z,85
2023-01-19T00:06:16.750Z,85
2023-01-19T00:07:02.763Z,85
2023-01-19T00:07:48.736Z,85
2023-01-19T00:08:34.729Z,85
2023-01-19T00:09:20.734Z,85
2023-01-19T00:10:06.760Z,85
2023-01-19T00:10:52.759Z,85
2023-01-19T00:11:38.686Z,85
2023-01-19T00:12:24.723Z,85
2023-01-19T00:13:10.716Z,85
2023-01-19T00:13:56.801Z,85
2023-01-19T00:14:42.861Z,85
2023-01-19T00:15:28.869Z,85
2023-01-19T00:16:14.831Z,85
2023-01-19T00:17:00.799Z,85
2023-01-19T00:17:46.710Z,85
2023-01-19T00:18:32.854Z,85
2023-01-19T00:19:18.783Z,85
2023-01-19T00:20:04.705Z,85
2023-01-19T00:20:50.816Z,85
2023-01-19T00:21:36.786Z,85
2023-01-19T00:22:22.731Z,86
2023-01-19T00:23:08.756Z,86
2023-01-19T00:23:54.750Z,86
2023-01-19T00:24:40.747Z,86
2023-01-19T00:25:26.750Z,86
2023-01-19T00:26:12.806Z,86
2023-01-19T00:26:58.775Z,86
2023-01-19T00:27:44.787Z,86
2023-01-19T00:28:31.290Z,86
2023-01-19T00:29:16.761Z,86
2023-01-19T00:30:02.878Z,86
2023-01-19T00:30:48.802Z,86
2023-01-19T00:31:34.773Z,86
2023-01-19T00:32:20.807Z,86
2023-01-19T00:33:06.910Z,86
2023-01-19T00:33:53.043Z,86
2023-01-19T00:34:38.750Z,86
2023-01-19T00:35:24.773Z,86
2023-01-19T00:36:10.868Z,86
2023-01-19T00:36:56.758Z,86
2023-01-19T00:37:42.815Z,86
2023-01-19T00:38:28.936Z,86
2023-01-19T00:39:14.872Z,86
2023-01-19T00:40:00.793Z,86
2023-01-19T00:40:46.806Z,87
2023-01-19T00:41:32.960Z,87
2023-01-19T00:42:18.819Z,87
2023-01-19T00:43:04.790Z,87
2023-01-19T00:43:50.840Z,87
2023-01-19T00:44:36.821Z,87
2023-01-19T00:45:22.870Z,87
2023-01-19T00:46:08.878Z,87
2023-01-19T00:46:54.822Z,87
2023-01-19T00:47:40.826Z,87
2023-01-19T00:48:26.800Z,87
2023-01-19T00:49:12.876Z,87
2023-01-19T00:49:58.882Z,87
2023-01-19T00:50:44.854Z,87
2023-01-19T00:51:31.286Z,87
2023-01-19T00:52:16.822Z,87
2023-01-19T00:53:03.176Z,87
2023-01-19T00:53:48.866Z,87
2023-01-19T00:54:34.831Z,87
2023-01-19T00:55:20.869Z,87
2023-01-19T00:56:06.839Z,87
2023-01-19T00:56:52.810Z,87
2023-01-19T00:57:38.856Z,87
2023-01-19T00:58:24.908Z,88
2023-01-19T00:59:10.907Z,88
2023-01-19T00:59:56.877Z,88
2023-01-19T01:00:43.071Z,88
2023-01-19T01:01:46.184Z,88
2023-01-19T01:02:15.178Z,88
2023-01-19T01:03:01.373Z,88
2023-01-19T01:03:46.818Z,88
2023-01-19T01:04:32.982Z,88
2023-01-19T01:05:18.849Z,88
2023-01-19T01:06:05.033Z,88
2023-01-19T01:06:50.880Z,88
2023-01-19T01:07:36.891Z,88
2023-01-19T01:08:22.844Z,88
2023-01-19T01:09:08.837Z,88
2023-01-19T01:09:54.903Z,88
2023-01-19T01:10:41.209Z,88
2023-01-19T01:11:27.142Z,88
2023-01-19T01:12:12.915Z,88
2023-01-19T01:12:59.362Z,89
2023-01-19T01:13:45.003Z,89
2023-01-19T01:14:31.559Z,89
2023-01-19T01:15:17.052Z,89
2023-01-19T01:16:02.984Z,89
2023-01-19T01:16:49.231Z,89
2023-01-19T01:17:34.921Z,89
2023-01-19T01:18:20.975Z,89
2023-01-19T01:19:07.052Z,89
2023-01-19T01:19:52.952Z,89
2023-01-19T01:20:38.919Z,89
2023-01-19T01:21:24.962Z,89
2023-01-19T01:22:11.088Z,89
2023-01-19T01:22:56.969Z,89
2023-01-19T01:23:42.991Z,89
2023-01-19T01:24:28.958Z,89
2023-01-19T01:25:14.954Z,89
2023-01-19T01:26:00.954Z,89
2023-01-19T01:26:47.028Z,89
2023-01-19T01:27:33.203Z,89
2023-01-19T01:28:18.993Z,89
2023-01-19T01:29:04.987Z,89
2023-01-19T01:29:50.979Z,89
2023-01-19T01:30:37.345Z,89
2023-01-19T01:31:23.002Z,89
2023-01-19T01:32:08.986Z,89
2023-01-19T01:32:55.023Z,89
2023-01-19T01:33:41.890Z,89
2023-01-19T01:34:26.947Z,89
2023-01-19T01:35:13.014Z,89
2023-01-19T01:35:59.022Z,89
2023-01-19T01:36:45.052Z,89
2023-01-19T01:37:31.568Z,89
2023-01-19T01:38:17.009Z,89
2023-01-19T01:39:03.011Z,89
2023-01-19T01:39:48.960Z,89
2023-01-19T01:40:34.942Z,89
2023-01-19T01:41:21.195Z,89
2023-01-19T01:42:07.040Z,89
2023-01-19T01:42:52.983Z,89
2023-01-19T01:43:38.960Z,89
2023-01-19T01:44:25.026Z,89
2023-01-19T01:45:11.134Z,89
2023-01-19T01:45:57.061Z,89
2023-01-19T01:46:43.099Z,89
2023-01-19T01:47:28.979Z,89
2023-01-19T01:48:15.055Z,89
2023-01-19T01:49:01.057Z,89
2023-01-19T01:49:46.993Z,89
2023-01-19T01:50:33.129Z,89
2023-01-19T01:51:19.125Z,89
2023-01-19T01:52:05.059Z,89
2023-01-19T01:53:07.353Z,89
2023-01-19T01:53:37.037Z,89
2023-01-19T01:54:23.005Z,89
2023-01-19T01:55:09.083Z,89
2023-01-19T01:55:55.092Z,89
2023-01-19T01:56:41.287Z,89
2023-01-19T01:57:27.133Z,89
2023-01-19T01:58:13.034Z,89
2023-01-19T01:58:59.084Z,90
2023-01-19T01:59:45.087Z,90
2023-01-19T02:00:31.538Z,90
2023-01-19T02:01:17.103Z,90
2023-01-19T02:02:03.153Z,90
2023-01-19T02:02:49.051Z,90
2023-01-19T02:03:35.036Z,90
2023-01-19T02:04:21.026Z,90
2023-01-19T02:05:07.117Z,90
2023-01-19T02:05:53.121Z,90
2023-01-19T02:06:39.067Z,90
2023-01-19T02:07:25.009Z,90
2023-01-19T02:08:11.175Z,90
2023-01-19T02:08:57.072Z,90
2023-01-19T02:09:43.135Z,90
2023-01-19T02:10:29.346Z,90
2023-01-19T02:11:15.155Z,89
2023-01-19T02:12:01.079Z,89
2023-01-19T02:12:47.099Z,89
2023-01-19T02:13:33.226Z,89
2023-01-19T02:14:19.192Z,89
2023-01-19T02:15:05.161Z,89
2023-01-19T02:15:51.105Z,89
2023-01-19T02:16:37.307Z,89
2023-01-19T02:17:23.055Z,89
2023-01-19T02:18:09.165Z,89
2023-01-19T02:18:55.171Z,89
2023-01-19T02:19:41.174Z,89
2023-01-19T02:20:27.144Z,89
2023-01-19T02:21:13.175Z,89
2023-01-19T02:21:59.181Z,89
2023-01-19T02:22:45.109Z,89
2023-01-19T02:23:31.677Z,89
2023-01-19T02:24:17.121Z,89
2023-01-19T02:25:03.123Z,89
2023-01-19T02:25:49.133Z,89
2023-01-19T02:26:35.076Z,89
2023-01-19T02:27:21.157Z,89
2023-01-19T02:28:07.109Z,89
2023-01-19T02:28:53.113Z,89
2023-01-19T02:29:39.152Z,89
2023-01-19T02:30:25.409Z,89
2023-01-19T02:31:11.154Z,89
2023-01-19T02:31:57.174Z,89
2023-01-19T02:32:43.289Z,89
2023-01-19T02:33:29.162Z,90
2023-01-19T02:34:15.207Z,90
2023-01-19T02:35:01.059Z,90
2023-01-19T02:35:47.185Z,90
2023-01-19T02:36:33.296Z,90
2023-01-19T02:37:19.136Z,90
2023-01-19T02:38:05.107Z,90
2023-01-19T02:38:51.123Z,90
2023-01-19T02:39:37.190Z,90
2023-01-19T02:40:23.111Z,90
2023-01-19T02:41:09.178Z,90
2023-01-19T02:41:55.212Z,90
2023-01-19T02:42:41.322Z,90
2023-01-19T02:43:27.156Z,90
2023-01-19T02:44:13.180Z,90
2023-01-19T02:44:59.190Z,90
2023-01-19T02:45:45.262Z,90
2023-01-19T02:46:31.696Z,90
2023-01-19T02:47:17.149Z,90
2023-01-19T02:48:03.195Z,90
2023-01-19T02:48:49.183Z,90
2023-01-19T02:49:35.160Z,90
2023-01-19T02:50:21.160Z,90
2023-01-19T02:51:07.322Z,90
2023-01-19T02:51:53.137Z,90
2023-01-19T02:52:39.239Z,91
2023-01-19T02:53:25.182Z,91
2023-01-19T02:54:11.230Z,91
2023-01-19T02:54:57.198Z,91
2023-01-19T02:55:43.234Z,91
2023-01-19T02:56:29.209Z,91
2023-01-19T02:57:15.358Z,91
2023-01-19T02:58:01.192Z,91
2023-01-19T02:58:47.171Z,90
2023-01-19T02:59:33.424Z,91
2023-01-19T03:00:19.247Z,91
2023-01-19T03:01:05.244Z,91
2023-01-19T03:01:51.567Z,91
2023-01-19T03:02:37.371Z,91
2023-01-19T03:03:23.204Z,91
2023-01-19T03:04:09.139Z,91
2023-01-19T03:04:55.244Z,91
2023-01-19T03:05:41.198Z,91
2023-01-19T03:06:27.217Z,91
2023-01-19T03:07:13.254Z,91
2023-01-19T03:07:59.240Z,91
2023-01-19T03:08:45.250Z,91
2023-01-19T03:09:31.736Z,91
2023-01-19T03:10:17.205Z,91
2023-01-19T03:11:03.466Z,91
2023-01-19T03:11:49.226Z,91
2023-01-19T03:12:35.186Z,91
2023-01-19T03:13:21.179Z,91
2023-01-19T03:14:07.279Z,91
2023-01-19T03:14:53.169Z,91
2023-01-19T03:15:39.248Z,91
2023-01-19T03:16:25.342Z,91
2023-01-19T03:17:11.278Z,91
2023-01-19T03:17:57.225Z,91
2023-01-19T03:18:43.313Z,91
2023-01-19T03:19:29.246Z,90
2023-01-19T03:20:15.236Z,91
2023-01-19T03:21:01.173Z,90
2023-01-19T03:21:47.234Z,90
2023-01-19T03:22:33.383Z,90
2023-01-19T03:23:19.236Z,90
2023-01-19T03:24:05.240Z,90
2023-01-19T03:24:51.273Z,90
2023-01-19T03:25:37.274Z,90
2023-01-19T03:26:23.241Z,91
2023-01-19T03:27:09.328Z,90
2023-01-19T03:27:55.344Z,90
2023-01-19T03:28:41.302Z,90
2023-01-19T03:29:27.243Z,90
2023-01-19T03:30:13.458Z,90
2023-01-19T03:30:59.312Z,90
2023-01-19T03:31:45.277Z,90
2023-01-19T03:32:31.942Z,90
2023-01-19T03:33:17.244Z,90
2023-01-19T03:34:03.345Z,90
2023-01-19T03:34:49.260Z,90
2023-01-19T03:35:35.277Z,90
2023-01-19T03:36:21.271Z,90
2023-01-19T03:37:07.395Z,90
2023-01-19T03:37:53.310Z,90
2023-01-19T03:38:39.348Z,90
2023-01-19T03:39:25.449Z,90
2023-01-19T03:40:11.410Z,90
2023-01-19T03:40:57.409Z,90
2023-01-19T03:41:46.314Z,90
2023-01-19T03:42:29.340Z,90
2023-01-19T03:43:15.348Z,90
2023-01-19T03:44:01.349Z,90
2023-01-19T03:44:47.472Z,90
2023-01-19T03:45:33.567Z,90
2023-01-19T03:46:19.607Z,90
2023-01-19T03:47:05.419Z,90
2023-01-19T03:47:51.323Z,90
2023-01-19T03:48:37.481Z,89
2023-01-19T03:49:23.408Z,89
2023-01-19T03:50:09.407Z,89
2023-01-19T03:50:55.311Z,89
2023-01-19T03:51:41.338Z,89
2023-01-19T03:52:27.450Z,89
2023-01-19T03:53:13.380Z,89
2023-01-19T03:53:59.394Z,89
2023-01-19T03:54:45.583Z,89
2023-01-19T03:55:31.817Z,89
2023-01-19T03:56:17.319Z,90
2023-01-19T03:57:03.444Z,90
2023-01-19T03:57:49.529Z,90
2023-01-19T03:58:35.295Z,90
2023-01-19T03:59:21.417Z,90
2023-01-19T04:00:07.521Z,90
2023-01-19T04:00:53.493Z,90
2023-01-19T04:01:39.463Z,90
2023-01-19T04:02:25.671Z,90
2023-01-19T04:03:11.446Z,90
2023-01-19T04:03:57.401Z,90
2023-01-19T04:04:43.845Z,90
2023-01-19T04:05:29.547Z,90
2023-01-19T04:06:15.449Z,90
2023-01-19T04:07:01.407Z,90
2023-01-19T04:07:47.520Z,90
2023-01-19T04:08:32.791Z,90
2023-01-19T04:09:20.241Z,90
2023-01-19T04:10:05.416Z,90
2023-01-19T04:10:51.525Z,90
2023-01-19T04:11:37.457Z,90
2023-01-19T04:12:23.440Z,90
2023-01-19T04:13:09.555Z,90
2023-01-19T04:13:55.410Z,90
2023-01-19T04:14:41.550Z,90
2023-01-19T04:15:27.551Z,90
2023-01-19T04:16:13.624Z,90
2023-01-19T04:16:59.651Z,90
2023-01-19T04:17:45.596Z,90
2023-01-19T04:18:33.824Z,90
2023-01-19T04:19:17.625Z,90
2023-01-19T04:20:03.481Z,90
2023-01-19T04:20:49.442Z,90
2023-01-19T04:21:35.663Z,90
2023-01-19T04:22:21.536Z,90
2023-01-19T04:23:07.580Z,91
2023-01-19T04:23:53.424Z,91
2023-01-19T04:24:39.611Z,91
2023-01-19T04:25:25.553Z,91
2023-01-19T04:26:11.570Z,91
2023-01-19T04:26:57.539Z,91
2023-01-19T04:27:43.488Z,91
2023-01-19T04:28:29.647Z,91
2023-01-19T04:29:15.729Z,91
2023-01-19T04:30:02.125Z,91
2023-01-19T04:30:47.549Z,91
2023-01-19T04:31:33.697Z,91
2023-01-19T04:32:19.521Z,91
2023-01-19T04:33:05.690Z,91
2023-01-19T04:33:51.643Z,91
2023-01-19T04:34:37.563Z,91
2023-01-19T04:35:23.647Z,91
2023-01-19T04:36:09.692Z,91
2023-01-19T04:36:55.605Z,91
2023-01-19T04:37:41.615Z,91
2023-01-19T04:38:27.777Z,91
2023-01-19T04:39:13.714Z,91
2023-01-19T04:39:59.682Z,91
2023-01-19T04:40:45.675Z,91
2023-01-19T04:41:32.191Z,91
2023-01-19T04:42:17.689Z,91
2023-01-19T04:43:03.979Z,91
2023-01-19T04:43:49.640Z,91
2023-01-19T04:44:35.558Z,90
2023-01-19T04:45:21.660Z,90
2023-01-19T04:46:07.712Z,90
2023-01-19T04:46:53.538Z,90
2023-01-19T04:47:39.526Z,90
2023-01-19T04:48:25.708Z,90
2023-01-19T04:49:11.736Z,90
2023-01-19T04:49:57.749Z,90
2023-01-19T04:50:43.734Z,90
2023-01-19T04:51:29.641Z,90
2023-01-19T04:52:15.590Z,90
2023-01-19T04:53:01.911Z,90
2023-01-19T04:53:47.595Z,90
2023-01-19T04:54:33.806Z,90
2023-01-19T04:55:19.789Z,90
2023-01-19T04:56:05.745Z,90
2023-01-19T04:56:51.018Z,90
2023-01-19T04:57:37.048Z,90
2023-01-19T04:58:23.781Z,90
2023-01-19T04:59:09.579Z,90
2023-01-19T04:59:55.649Z,90
2023-01-19T05:00:41.939Z,90
2023-01-19T05:01:27.870Z,90
2023-01-19T05:02:13.844Z,90
2023-01-19T05:03:00.422Z,90
2023-01-19T05:03:45.766Z,90
2023-01-19T05:04:32.109Z,90
2023-01-19T05:05:17.741Z,90
2023-01-19T05:06:03.881Z,90
2023-01-19T05:06:49.764Z,90
2023-01-19T05:07:35.827Z,90
2023-01-19T05:08:21.660Z,90
2023-01-19T05:09:07.712Z,90
2023-01-19T05:09:53.783Z,90
2023-01-19T05:10:39.691Z,90
2023-01-19T05:11:25.850Z,90
2023-01-19T05:12:11.724Z,90
2023-01-19T05:12:58.035Z,90
2023-01-19T05:13:43.775Z,90
2023-01-19T05:14:29.780Z,90
2023-01-19T05:15:16.003Z,90
2023-01-19T05:16:01.834Z,90
2023-01-19T05:16:47.798Z,90
2023-01-19T05:17:33.934Z,90
2023-01-19T05:18:19.678Z,90
2023-01-19T05:19:05.909Z,90
2023-01-19T05:19:51.703Z,90
2023-01-19T05:20:37.709Z,90
2023-01-19T05:21:23.685Z,90
2023-01-19T05:22:09.843Z,90
2023-01-19T05:22:55.748Z,90
2023-01-19T05:23:41.761Z,90
2023-01-19T05:24:27.706Z,90
2023-01-19T05:25:13.749Z,90
2023-01-19T05:25:59.723Z,90
2023-01-19T05:26:45.765Z,90
2023-01-19T05:27:31.899Z,90
2023-01-19T05:28:17.880Z,90
2023-01-19T05:29:03.721Z,90
2023-01-19T05:29:49.746Z,90
2023-01-19T05:30:35.908Z,90
2023-01-19T05:31:21.797Z,90
2023-01-19T05:32:07.786Z,90
2023-01-19T05:32:53.811Z,90
2023-01-19T05:33:39.764Z,90
2023-01-19T05:34:25.750Z,90
2023-01-19T05:35:11.814Z,90
2023-01-19T05:35:57.793Z,90
2023-01-19T05:36:44.001Z,90
2023-01-19T05:37:29.752Z,90
2023-01-19T05:38:20.827Z,90
2023-01-19T05:39:01.828Z,90
2023-01-19T05:39:47.920Z,90
2023-01-19T05:40:33.823Z,90
2023-01-19T05:41:19.719Z,90
2023-01-19T05:42:05.745Z,90
2023-01-19T05:42:51.851Z,90
2023-01-19T05:43:37.788Z,90
2023-01-19T05:44:23.732Z,90
2023-01-19T05:45:09.844Z,90
2023-01-19T05:45:55.853Z,90
2023-01-19T05:46:41.831Z,90
2023-01-19T05:47:27.751Z,90
2023-01-19T05:48:13.867Z,90
2023-01-19T05:48:59.797Z,90
2023-01-19T05:49:45.933Z,90
2023-01-19T05:50:32.000Z,90
2023-01-19T05:51:17.786Z,90
2023-01-19T05:52:03.794Z,90
2023-01-19T05:52:49.754Z,90
2023-01-19T05:53:35.789Z,90
2023-01-19T05:54:21.789Z,90
2023-01-19T05:55:07.777Z,91
2023-01-19T05:55:53.846Z,91
2023-01-19T05:56:39.737Z,91
2023-01-19T05:57:25.823Z,91
2023-01-19T05:58:11.840Z,91
2023-01-19T05:58:57.787Z,91
2023-01-19T05:59:43.850Z,91
2023-01-19T06:00:29.933Z,91
2023-01-19T06:01:15.925Z,91
2023-01-19T06:02:01.857Z,91
2023-01-19T06:02:47.839Z,91
2023-01-19T06:03:34.026Z,91
2023-01-19T06:04:19.767Z,91
2023-01-19T06:05:05.767Z,91
2023-01-19T06:05:51.819Z,91
2023-01-19T06:06:37.867Z,91
2023-01-19T06:07:24.461Z,91
2023-01-19T06:08:09.819Z,91
2023-01-19T06:08:55.856Z,91
2023-01-19T06:09:41.836Z,91
2023-01-19T06:10:27.804Z,91
2023-01-19T06:11:13.797Z,91
2023-01-19T06:11:59.883Z,91
2023-01-19T06:12:45.850Z,91
2023-01-19T06:13:31.936Z,91
2023-01-19T06:14:17.850Z,91
2023-01-19T06:15:03.856Z,91
2023-01-19T06:15:49.799Z,91
2023-01-19T06:16:35.951Z,91
2023-01-19T06:17:21.839Z,91
2023-01-19T06:18:07.881Z,91
2023-01-19T06:18:53.844Z,91
2023-01-19T06:19:39.811Z,91
2023-01-19T06:20:25.866Z,91
2023-01-19T06:21:11.944Z,91
2023-01-19T06:21:57.896Z,91
2023-01-19T06:22:43.990Z,91
2023-01-19T06:23:29.886Z,91
2023-01-19T06:24:15.895Z,91
2023-01-19T06:25:01.897Z,91
2023-01-19T06:25:47.904Z,91
2023-01-19T06:26:33.936Z,91
2023-01-19T06:27:19.831Z,91
2023-01-19T06:28:05.927Z,91
2023-01-19T06:28:51.827Z,91
2023-01-19T06:29:37.896Z,91
2023-01-19T06:30:23.908Z,91
2023-01-19T06:31:09.919Z,91
2023-01-19T06:31:55.983Z,91
2023-01-19T06:32:41.917Z,91
2023-01-19T06:33:27.862Z,91
2023-01-19T06:34:13.920Z,91
2023-01-19T06:34:59.905Z,91
2023-01-19T06:35:45.861Z,91
2023-01-19T06:36:32.037Z,91
2023-01-19T06:37:17.927Z,91
2023-01-19T06:38:03.899Z,91
2023-01-19T06:38:49.906Z,91
2023-01-19T06:39:35.932Z,91
2023-01-19T06:40:21.940Z,91
2023-01-19T06:41:07.948Z,91
2023-01-19T06:41:53.947Z,91
2023-01-19T06:42:39.890Z,91
2023-01-19T06:43:25.951Z,91
2023-01-19T06:44:11.971Z,91
2023-01-19T06:44:57.870Z,91
2023-01-19T06:45:45.237Z,91
2023-01-19T06:46:29.945Z,91
2023-01-19T06:47:16.565Z,91
2023-01-19T06:48:01.929Z,91
2023-01-19T06:48:47.934Z,91
2023-01-19T06:49:34.015Z,91
2023-01-19T06:50:19.890Z,91
2023-01-19T06:51:05.983Z,91
2023-01-19T06:51:51.970Z,91
2023-01-19T06:52:37.921Z,91
2023-01-19T06:53:23.900Z,91
2023-01-19T06:54:09.906Z,91
2023-01-19T06:54:56.735Z,91
2023-01-19T06:55:42.010Z,91
2023-01-19T06:56:27.921Z,91
2023-01-19T06:57:14.062Z,91
2023-01-19T06:57:59.982Z,91
2023-01-19T06:58:45.924Z,91
2023-01-19T06:59:31.947Z,91
2023-01-19T07:00:18.083Z,91
2023-01-19T07:01:04.073Z,91
2023-01-19T07:01:50.101Z,91
2023-01-19T07:02:36.178Z,91
2023-01-19T07:03:22.140Z,91
2023-01-19T07:04:07.971Z,91
2023-01-19T07:04:54.010Z,91
2023-01-19T07:05:39.961Z,91
2023-01-19T07:06:25.993Z,91
2023-01-19T07:07:11.996Z,91
2023-01-19T07:07:57.988Z,91
2023-01-19T07:08:44.174Z,91
2023-01-19T07:09:29.982Z,91
2023-01-19T07:10:15.994Z,91
2023-01-19T07:11:26.405Z,91
2023-01-19T07:11:48.004Z,91
2023-01-19T07:12:34.036Z,91
2023-01-19T07:13:19.928Z,91
2023-01-19T07:14:05.981Z,91
2023-01-19T07:14:52.052Z,91
2023-01-19T07:15:38.083Z,91
2023-01-19T07:16:24.051Z,91
2023-01-19T07:17:09.954Z,91
2023-01-19T07:17:56.063Z,91
2023-01-19T07:18:42.366Z,91
2023-01-19T07:19:27.994Z,91
2023-01-19T07:20:14.075Z,91
2023-01-19T07:21:00.051Z,91
2023-01-19T07:21:46.034Z,91
2023-01-19T07:22:32.155Z,91
2023-01-19T07:23:18.081Z,91
2023-01-19T07:24:04.005Z,91
2023-01-19T07:24:50.064Z,91
2023-01-19T07:25:36.928Z,91
2023-01-19T07:26:22.221Z,91
2023-01-19T07:27:08.140Z,91
2023-01-19T07:27:54.009Z,91
2023-01-19T07:28:40.008Z,91
2023-01-19T07:29:26.101Z,91
2023-01-19T07:30:12.189Z,91
2023-01-19T07:30:58.185Z,91
2023-01-19T07:31:44.347Z,91
2023-01-19T07:32:30.076Z,91
2023-01-19T07:33:16.063Z,91
2023-01-19T07:34:02.154Z,91
2023-01-19T07:34:48.109Z,91
2023-01-19T07:35:34.179Z,91
2023-01-19T07:36:20.051Z,91
2023-01-19T07:37:06.148Z,91
2023-01-19T07:37:52.217Z,91
2023-01-19T07:38:38.153Z,91
2023-01-19T07:39:24.112Z,91
2023-01-19T07:40:10.163Z,91
2023-01-19T07:40:56.156Z,91
2023-01-19T07:41:42.162Z,91
2023-01-19T07:42:28.125Z,91
2023-01-19T07:43:14.404Z,91
2023-01-19T07:44:00.197Z,90
2023-01-19T07:44:46.159Z,90
2023-01-19T07:45:32.287Z,90
2023-01-19T07:46:18.253Z,90
2023-01-19T07:47:04.149Z,90
2023-01-19T07:47:50.180Z,90
2023-01-19T07:48:36.240Z,90
2023-01-19T07:49:22.184Z,90
2023-01-19T07:50:08.216Z,90
2023-01-19T07:50:54.242Z,90
2023-01-19T07:51:40.163Z,90
2023-01-19T07:52:26.254Z,90
2023-01-19T07:53:12.192Z,90
2023-01-19T07:53:58.127Z,90
2023-01-19T07:54:44.332Z,90
2023-01-19T07:55:30.235Z,90
2023-01-19T07:56:16.141Z,90
2023-01-19T07:57:02.251Z,90
2023-01-19T07:57:48.225Z,90
2023-01-19T07:58:34.288Z,90
2023-01-19T07:59:20.209Z,90
2023-01-19T08:00:06.388Z,90
2023-01-19T08:00:52.410Z,90
2023-01-19T08:01:38.329Z,90
2023-01-19T08:02:24.196Z,90
2023-01-19T08:03:11.458Z,90
2023-01-19T08:03:56.250Z,90
2023-01-19T08:04:42.823Z,90
2023-01-19T08:05:28.324Z,90
2023-01-19T08:06:14.453Z,90
2023-01-19T08:07:00.231Z,90
2023-01-19T08:07:46.234Z,90
2023-01-19T08:08:32.352Z,90
2023-01-19T08:09:18.327Z,90
2023-01-19T08:10:04.243Z,90
2023-01-19T08:10:50.232Z,90
2023-01-19T08:11:36.228Z,90
2023-01-19T08:12:22.277Z,90
2023-01-19T08:20:48.439Z,90
2023-01-19T08:21:34.354Z,90
2023-01-19T08:22:20.300Z,90
2023-01-19T08:23:06.338Z,90
2023-01-19T08:23:52.419Z,90
2023-01-19T08:24:38.229Z,90
2023-01-19T08:25:24.267Z,90
2023-01-19T08:26:10.322Z,90
2023-01-19T08:26:56.247Z,90
2023-01-19T08:27:42.243Z,90
2023-01-19T08:28:28.365Z,90
2023-01-19T08:29:14.267Z,90
2023-01-19T08:30:00.475Z,90
2023-01-19T08:30:46.418Z,90
2023-01-19T08:31:32.325Z,90
2023-01-19T08:32:19.462Z,90
2023-01-19T08:33:04.666Z,90
2023-01-19T08:33:50.247Z,90
2023-01-19T08:34:36.343Z,90
2023-01-19T08:35:22.372Z,90
2023-01-19T08:36:08.292Z,90
2023-01-19T08:36:54.262Z,90
2023-01-19T08:37:40.321Z,90
2023-01-19T08:38:26.290Z,90
2023-01-19T08:39:12.318Z,89
2023-01-19T08:39:58.276Z,89
2023-01-19T08:40:44.288Z,89
2023-01-19T08:41:30.301Z,89
2023-01-19T08:42:16.293Z,89
2023-01-19T08:43:02.651Z,89
2023-01-19T08:43:48.281Z,89
2023-01-19T08:44:34.408Z,89
2023-01-19T08:45:20.345Z,89
2023-01-19T08:46:06.411Z,89
2023-01-19T08:46:52.325Z,89
2023-01-19T08:47:38.360Z,89
2023-01-19T08:48:24.382Z,89
2023-01-19T08:49:10.352Z,89
2023-01-19T08:49:56.288Z,89
2023-01-19T08:50:42.281Z,89
2023-01-19T08:51:28.260Z,89
2023-01-19T08:52:14.331Z,89
2023-01-19T08:53:00.757Z,89
2023-01-19T08:53:46.384Z,89
2023-01-19T08:54:32.357Z,89
2023-01-19T08:55:18.712Z,89
2023-01-19T08:56:04.342Z,89
2023-01-19T08:56:50.303Z,88
2023-01-19T08:57:36.352Z,88
2023-01-19T08:58:22.457Z,88
2023-01-19T08:59:10.847Z,89
2023-01-19T08:59:54.339Z,88
2023-01-19T09:00:40.495Z,88
2023-01-19T09:01:26.440Z,88
2023-01-19T09:02:12.372Z,88
2023-01-19T09:02:58.481Z,88
2023-01-19T09:03:44.435Z,88
2023-01-19T09:04:30.387Z,88
2023-01-19T09:05:16.352Z,88
2023-01-19T09:06:02.451Z,88
2023-01-19T09:06:48.410Z,88
2023-01-19T09:07:35.707Z,88
2023-01-19T09:08:20.358Z,88
2023-01-19T09:09:06.355Z,88
2023-01-19T09:09:52.388Z,88
2023-01-19T09:10:38.332Z,87
2023-01-19T09:11:24.345Z,87
2023-01-19T09:12:10.446Z,87
2023-01-19T09:12:56.452Z,87
2023-01-19T09:13:42.524Z,86
2023-01-19T09:14:28.346Z,86
2023-01-19T09:15:14.633Z,86
2023-01-19T09:16:00.639Z,86
2023-01-19T09:16:46.595Z,86
2023-01-19T09:17:32.555Z,85
2023-01-19T09:18:18.880Z,85
2023-01-19T09:19:04.559Z,85
2023-01-19T09:19:50.667Z,85
2023-01-19T09:20:36.595Z,85
2023-01-19T09:21:22.531Z,84
2023-01-19T09:22:08.587Z,84
2023-01-19T09:22:54.580Z,83
2023-01-19T09:23:40.627Z,83
2023-01-19T09:24:26.567Z,83
2023-01-19T09:25:12.541Z,83
2023-01-19T09:25:58.561Z,83
2023-01-19T09:26:44.441Z,82
2023-01-19T09:27:30.580Z,82
2023-01-19T09:28:16.585Z,82
2023-01-19T09:29:02.451Z,82
2023-01-19T09:29:48.559Z,81
2023-01-19T09:30:34.781Z,82
2023-01-19T09:31:20.661Z,82
2023-01-19T09:32:06.565Z,82
2023-01-19T09:32:52.598Z,82
2023-01-19T09:33:38.604Z,81
2023-01-19T09:34:24.555Z,81
2023-01-19T09:35:10.602Z,81
2023-01-19T09:35:56.562Z,81
2023-01-19T09:36:42.579Z,81
2023-01-19T09:37:28.582Z,81
2023-01-19T09:38:14.497Z,81
2023-01-19T09:39:00.752Z,81
2023-01-19T09:39:46.587Z,81
2023-01-19T09:40:32.568Z,80
2023-01-19T09:41:18.846Z,80
2023-01-19T09:42:04.590Z,80
2023-01-19T09:42:50.560Z,80
2023-01-19T09:43:36.644Z,81
2023-01-19T09:44:22.609Z,81
2023-01-19T09:45:10.358Z,80
2023-01-19T09:45:54.429Z,80
2023-01-19T09:46:40.750Z,80
2023-01-19T09:47:26.632Z,80
2023-01-19T09:48:12.642Z,80
2023-01-19T09:48:58.478Z,80
2023-01-19T09:49:44.518Z,80
2023-01-19T09:50:30.675Z,80
2023-01-19T09:51:16.661Z,80
2023-01-19T09:52:02.671Z,79
2023-01-19T09:52:48.664Z,80
2023-01-19T09:53:34.694Z,79
2023-01-19T09:54:20.633Z,79
2023-01-19T09:55:06.751Z,78
2023-01-19T09:55:52.714Z,78
2023-01-19T09:56:38.661Z,78
2023-01-19T09:57:24.637Z,78
2023-01-19T09:58:10.752Z,78
2023-01-19T09:58:56.691Z,78
2023-01-19T09:59:42.625Z,78
2023-01-19T10:00:28.767Z,78
2023-01-19T10:01:14.722Z,78
2023-01-19T10:02:00.568Z,78
2023-01-19T10:02:46.656Z,77
2023-01-19T10:03:32.693Z,77
2023-01-19T10:04:18.937Z,78
2023-01-19T10:05:04.692Z,77
2023-01-19T10:05:51.062Z,78
2023-01-19T10:06:36.765Z,78
2023-01-19T10:07:22.625Z,77
2023-01-19T10:08:08.779Z,76
2023-01-19T10:08:54.680Z,76
2023-01-19T10:09:40.691Z,76
2023-01-19T10:10:26.509Z,75
2023-01-19T10:11:12.538Z,74
2023-01-19T10:11:58.636Z,75
2023-01-19T10:12:44.640Z,76
2023-01-19T10:13:30.603Z,76
2023-01-19T10:14:16.507Z,76
2023-01-19T10:15:02.616Z,76
2023-01-19T10:15:48.604Z,76
2023-01-19T10:16:34.647Z,76
2023-01-19T10:17:20.670Z,76
2023-01-19T10:18:06.543Z,77
2023-01-19T10:18:52.603Z,77
2023-01-19T10:19:38.553Z,78
2023-01-19T10:20:24.555Z,78
2023-01-19T10:21:10.655Z,78
2023-01-19T10:21:56.540Z,79
2023-01-19T10:22:42.578Z,79
2023-01-19T10:23:27.807Z,79
2023-01-19T10:24:14.597Z,78
2023-01-19T10:25:00.709Z,78
2023-01-19T10:25:46.636Z,79
2023-01-19T10:26:32.658Z,79
2023-01-19T10:27:18.921Z,79
2023-01-19T10:28:04.595Z,79
2023-01-19T10:28:50.580Z,79
2023-01-19T10:29:36.623Z,79
2023-01-19T10:30:22.720Z,79
2023-01-19T10:31:08.665Z,79
2023-01-19T10:31:54.623Z,80
2023-01-19T10:32:40.650Z,80
2023-01-19T10:33:26.578Z,80
2023-01-19T10:34:12.634Z,80
2023-01-19T10:34:58.593Z,80
2023-01-19T10:35:44.620Z,80
2023-01-19T10:36:30.719Z,80
2023-01-19T10:37:16.590Z,79
2023-01-19T10:38:02.673Z,79
2023-01-19T10:38:48.628Z,80
2023-01-19T10:39:37.978Z,79
2023-01-19T10:40:20.694Z,78
2023-01-19T10:41:06.655Z,78
2023-01-19T10:41:52.692Z,78
2023-01-19T10:42:38.670Z,78
2023-01-19T10:43:24.658Z,77
2023-01-19T10:44:10.732Z,77
2023-01-19T10:44:56.578Z,77
2023-01-19T10:45:42.747Z,77
2023-01-19T10:46:28.665Z,77
2023-01-19T10:47:14.792Z,77
2023-01-19T10:48:00.747Z,76
2023-01-19T10:48:46.610Z,76
2023-01-19T10:49:32.726Z,77
2023-01-19T10:50:19.096Z,76
2023-01-19T10:51:04.720Z,76
2023-01-19T10:51:50.652Z,77
2023-01-19T10:52:36.672Z,77
2023-01-19T10:53:22.649Z,77
2023-01-19T10:54:08.675Z,77
2023-01-19T10:54:54.635Z,77
2023-01-19T10:55:40.759Z,77
2023-01-19T10:56:26.687Z,77
2023-01-19T10:57:12.676Z,77
2023-01-19T10:57:58.757Z,77
2023-01-19T10:58:44.696Z,77
2023-01-19T10:59:30.683Z,77
2023-01-19T11:00:16.713Z,77
2023-01-19T11:01:02.851Z,77
2023-01-19T11:01:49.051Z,77
2023-01-19T11:02:35.051Z,77
2023-01-19T11:03:20.740Z,77